Etusivu
METAR-TAF:

METAR-TAF

Lentoasemat :

Luulajan lentoasema

Luulaja, Ruotsi

Leveyspiiri: 65-33N, Pituuspiiri: 022-08E, korkeus merenpinnasta: 17 m

Tämänhetkinen sää

Tämä raportti tehtiin 39 minuuttia sitten, kello 13.20 UTC
Tuuli 7 kn kaakosta
Lämpötila 14°C
Kosteus 44%
Ilmanpaine 1028 hPa
Näkyvyys 10 km tai enemmän
ei pilviä alle 1500 m:ssä eikä cumulonimbus-pilviä

METAR: ESPA 241320Z 14007KT CAVOK 14/02 Q1028

Aika: 15:59 (13:59 UTC)

Sääennuste

Tämä raportti tehtiin 2 tuntia ja 29 minuuttia sitten, kello 11.30 UTC
Ennuste voimassa 24. päivästä klo 12 UTC - 24. päivään klo 21 UTC
Tuuli 7 kn kaakosta
Näkyvyys 10 km tai enemmän
ei pilviä alle 1500 m:ssä eikä cumulonimbus-pilviä

TAF: ESPA 241130Z 2412/2421 14007KT CAVOK

Säähavainnot ja -ennusteet yli 4000 lentoasemalta (METAR- ja TAF-raportit).

Käytössä olevat sääasemat on merkitty karttaan keltaisilla ja punaisilla pisteillä.

Aseta hiiri pisteen päälle nähdäksesi sääaseman nimen.

Klikkaa sitten nähdäksesi säähavainnot ja -ennusteet.

Kartan vaihtaminen: klikkaa mustalla rastilla varustettuja vihreitä pisteitä, niin voit zoomata sisään; viivalla varustettua vihreää pistettä, niin voit zoomata ulos tai vihreitä nuolia, niin pääset viereisille kartoille.


METAR-TAF: